sensor_id;sensor_type;location;lat;lon;timestamp;pressure;altitude;pressure_sealevel;temperature;humidity
63819;BME280;49970;54.976;73.248;2022-10-16T00:01:23;100990.75;;;8.77;84.26
63819;BME280;49970;54.976;73.248;2022-10-16T00:03:49;100999.53;;;8.77;83.38
63819;BME280;49970;54.976;73.248;2022-10-16T00:06:17;100987.25;;;8.76;83.52
63819;BME280;49970;54.976;73.248;2022-10-16T00:08:44;100989.22;;;8.72;83.26
63819;BME280;49970;54.976;73.248;2022-10-16T00:11:16;100983.22;;;8.69;82.91
63819;BME280;49970;54.976;73.248;2022-10-16T00:13:44;100982.31;;;8.70;82.98
63819;BME280;49970;54.976;73.248;2022-10-16T00:16:12;100978.19;;;8.64;82.86
63819;BME280;49970;54.976;73.248;2022-10-16T00:18:39;100985.13;;;8.67;82.72
63819;BME280;49970;54.976;73.248;2022-10-16T00:21:10;100992.44;;;8.62;82.09
63819;BME280;49970;54.976;73.248;2022-10-16T00:23:37;100991.78;;;8.57;82.58
63819;BME280;49970;54.976;73.248;2022-10-16T00:26:06;100987.59;;;8.53;82.43
63819;BME280;49970;54.976;73.248;2022-10-16T00:28:33;100987.69;;;8.51;81.90
63819;BME280;49970;54.976;73.248;2022-10-16T00:31:03;100976.53;;;8.46;82.37
63819;BME280;49970;54.976;73.248;2022-10-16T00:33:30;100984.59;;;8.43;82.40
63819;BME280;49970;54.976;73.248;2022-10-16T00:35:58;100986.28;;;8.44;82.18
63819;BME280;49970;54.976;73.248;2022-10-16T00:38:35;100983.75;;;8.42;81.84
63819;BME280;49970;54.976;73.248;2022-10-16T00:41:02;100969.00;;;8.38;82.51
63819;BME280;49970;54.976;73.248;2022-10-16T00:43:43;100970.69;;;8.39;82.24
63819;BME280;49970;54.976;73.248;2022-10-16T00:46:37;100971.00;;;8.33;82.30
63819;BME280;49970;54.976;73.248;2022-10-16T00:49:11;100967.97;;;8.23;81.95
63819;BME280;49970;54.976;73.248;2022-10-16T00:51:45;100968.81;;;8.24;82.50
63819;BME280;49970;54.976;73.248;2022-10-16T00:54:23;100963.97;;;8.15;83.49
63819;BME280;49970;54.976;73.248;2022-10-16T00:56:50;100967.03;;;8.07;83.77
63819;BME280;49970;54.976;73.248;2022-10-16T00:59:26;100967.19;;;8.04;82.89
63819;BME280;49970;54.976;73.248;2022-10-16T01:01:53;100975.94;;;8.05;82.93
63819;BME280;49970;54.976;73.248;2022-10-16T01:04:20;100971.00;;;7.98;82.52
63819;BME280;49970;54.976;73.248;2022-10-16T01:12:49;100979.28;;;7.91;81.18
63819;BME280;49970;54.976;73.248;2022-10-16T01:15:27;100986.25;;;7.92;81.33
63819;BME280;49970;54.976;73.248;2022-10-16T01:18:14;100977.34;;;7.94;80.99
63819;BME280;49970;54.976;73.248;2022-10-16T01:21:16;100986.81;;;7.98;81.40
63819;BME280;49970;54.976;73.248;2022-10-16T01:24:08;100982.53;;;7.96;81.28
63819;BME280;49970;54.976;73.248;2022-10-16T01:32:24;100972.34;;;7.88;81.05
63819;BME280;49970;54.976;73.248;2022-10-16T01:35:18;100975.13;;;7.85;81.51
63819;BME280;49970;54.976;73.248;2022-10-16T01:38:05;100959.63;;;7.79;81.52
63819;BME280;49970;54.976;73.248;2022-10-16T01:40:35;100969.09;;;7.83;80.92
63819;BME280;49970;54.976;73.248;2022-10-16T01:43:12;100971.59;;;7.86;81.16
63819;BME280;49970;54.976;73.248;2022-10-16T01:45:40;100973.16;;;7.90;81.24
63819;BME280;49970;54.976;73.248;2022-10-16T01:48:19;100976.63;;;7.91;81.29
63819;BME280;49970;54.976;73.248;2022-10-16T01:51:19;100968.97;;;7.86;81.26
63819;BME280;49970;54.976;73.248;2022-10-16T01:53:53;100968.97;;;7.86;80.95
63819;BME280;49970;54.976;73.248;2022-10-16T01:56:21;100961.94;;;7.85;81.06
63819;BME280;49970;54.976;73.248;2022-10-16T01:59:10;100964.59;;;7.85;80.78
63819;BME280;49970;54.976;73.248;2022-10-16T02:01:52;100951.63;;;7.81;80.92
63819;BME280;49970;54.976;73.248;2022-10-16T02:04:48;100958.63;;;7.82;80.52
63819;BME280;49970;54.976;73.248;2022-10-16T02:07:14;100967.09;;;7.88;79.86
63819;BME280;49970;54.976;73.248;2022-10-16T02:09:40;100959.25;;;7.87;79.97
63819;BME280;49970;54.976;73.248;2022-10-16T02:12:19;100968.06;;;7.86;79.63
63819;BME280;49970;54.976;73.248;2022-10-16T02:14:48;100949.09;;;7.79;80.08
63819;BME280;49970;54.976;73.248;2022-10-16T02:17:17;100953.41;;;7.80;79.39
63819;BME280;49970;54.976;73.248;2022-10-16T02:19:45;100957.63;;;7.84;79.68
63819;BME280;49970;54.976;73.248;2022-10-16T02:22:27;100957.47;;;7.87;79.51
63819;BME280;49970;54.976;73.248;2022-10-16T02:24:58;100963.50;;;7.89;79.56
63819;BME280;49970;54.976;73.248;2022-10-16T02:27:43;100958.94;;;7.93;79.30
63819;BME280;49970;54.976;73.248;2022-10-16T02:32:55;100965.78;;;7.97;79.70
63819;BME280;49970;54.976;73.248;2022-10-16T02:35:24;100963.13;;;7.97;79.52
63819;BME280;49970;54.976;73.248;2022-10-16T02:37:53;100973.41;;;8.03;79.43
63819;BME280;49970;54.976;73.248;2022-10-16T02:40:19;100975.09;;;8.04;79.02
63819;BME280;49970;54.976;73.248;2022-10-16T02:42:50;100968.13;;;8.03;78.87
63819;BME280;49970;54.976;73.248;2022-10-16T02:45:18;100970.09;;;7.98;79.29
63819;BME280;49970;54.976;73.248;2022-10-16T02:47:44;100973.41;;;8.03;79.17
63819;BME280;49970;54.976;73.248;2022-10-16T02:50:11;100962.28;;;7.96;79.28
63819;BME280;49970;54.976;73.248;2022-10-16T02:52:37;100959.56;;;7.98;79.42
63819;BME280;49970;54.976;73.248;2022-10-16T02:55:03;100971.75;;;8.01;78.96
63819;BME280;49970;54.976;73.248;2022-10-16T02:57:30;100970.91;;;8.00;79.19
63819;BME280;49970;54.976;73.248;2022-10-16T02:59:58;100968.25;;;8.00;79.62
63819;BME280;49970;54.976;73.248;2022-10-16T03:02:24;100968.97;;;8.04;79.76
63819;BME280;49970;54.976;73.248;2022-10-16T03:04:50;100956.88;;;7.99;79.33
63819;BME280;49970;54.976;73.248;2022-10-16T03:07:16;100957.47;;;8.05;79.74
63819;BME280;49970;54.976;73.248;2022-10-16T03:09:42;100959.97;;;8.08;79.56
63819;BME280;49970;54.976;73.248;2022-10-16T03:12:09;100958.03;;;8.11;79.66
63819;BME280;49970;54.976;73.248;2022-10-16T03:14:35;100956.00;;;8.16;79.26
63819;BME280;49970;54.976;73.248;2022-10-16T03:17:01;100936.97;;;8.10;79.51
63819;BME280;49970;54.976;73.248;2022-10-16T03:19:27;100949.66;;;8.20;79.25
63819;BME280;49970;54.976;73.248;2022-10-16T03:21:54;100939.16;;;8.19;79.71
63819;BME280;49970;54.976;73.248;2022-10-16T03:24:20;100931.22;;;8.19;79.24
63819;BME280;49970;54.976;73.248;2022-10-16T03:26:46;100946.44;;;8.31;79.11
63819;BME280;49970;54.976;73.248;2022-10-16T03:29:12;100944.44;;;8.36;79.37
63819;BME280;49970;54.976;73.248;2022-10-16T03:31:39;100940.75;;;8.40;79.28
63819;BME280;49970;54.976;73.248;2022-10-16T03:34:05;100937.22;;;8.40;78.39
63819;BME280;49970;54.976;73.248;2022-10-16T03:36:31;100940.56;;;8.43;78.09
63819;BME280;49970;54.976;73.248;2022-10-16T03:38:57;100933.59;;;8.42;79.08
63819;BME280;49970;54.976;73.248;2022-10-16T03:41:24;100938.56;;;8.48;77.92
63819;BME280;49970;54.976;73.248;2022-10-16T03:43:50;100939.16;;;8.54;77.84
63819;BME280;49970;54.976;73.248;2022-10-16T03:46:16;100941.47;;;8.60;78.19
63819;BME280;49970;54.976;73.248;2022-10-16T03:48:42;100939.63;;;8.62;78.13
63819;BME280;49970;54.976;73.248;2022-10-16T03:51:09;100949.00;;;8.67;78.10
63819;BME280;49970;54.976;73.248;2022-10-16T03:53:35;100953.88;;;8.75;77.93
63819;BME280;49970;54.976;73.248;2022-10-16T03:56:04;100951.13;;;8.77;77.81
63819;BME280;49970;54.976;73.248;2022-10-16T03:58:30;100939.03;;;8.72;77.76
63819;BME280;49970;54.976;73.248;2022-10-16T04:00:56;100952.28;;;8.88;77.46
63819;BME280;49970;54.976;73.248;2022-10-16T04:03:22;100960.88;;;8.92;77.87
63819;BME280;49970;54.976;73.248;2022-10-16T04:05:49;100960.53;;;8.98;78.02
63819;BME280;49970;54.976;73.248;2022-10-16T04:08:15;100956.03;;;9.00;77.00
63819;BME280;49970;54.976;73.248;2022-10-16T04:10:43;100954.94;;;9.04;77.30
63819;BME280;49970;54.976;73.248;2022-10-16T04:13:09;100950.34;;;9.08;76.69
63819;BME280;49970;54.976;73.248;2022-10-16T04:15:36;100930.91;;;9.09;77.25
63819;BME280;49970;54.976;73.248;2022-10-16T04:18:04;100936.63;;;9.17;77.09
63819;BME280;49970;54.976;73.248;2022-10-16T04:20:30;100939.59;;;9.27;77.02
63819;BME280;49970;54.976;73.248;2022-10-16T04:23:01;100939.28;;;9.33;76.88
63819;BME280;49970;54.976;73.248;2022-10-16T04:25:28;100932.78;;;9.38;76.19
63819;BME280;49970;54.976;73.248;2022-10-16T04:27:54;100936.59;;;9.48;76.39
63819;BME280;49970;54.976;73.248;2022-10-16T04:30:21;100940.63;;;9.56;75.53
63819;BME280;49970;54.976;73.248;2022-10-16T04:32:49;100936.00;;;9.59;75.30
63819;BME280;49970;54.976;73.248;2022-10-16T04:35:19;100936.31;;;9.69;75.06
63819;BME280;49970;54.976;73.248;2022-10-16T04:37:46;100932.75;;;9.70;74.95
63819;BME280;49970;54.976;73.248;2022-10-16T04:40:13;100935.81;;;9.78;74.70
63819;BME280;49970;54.976;73.248;2022-10-16T04:42:40;100941.75;;;9.82;74.83
63819;BME280;49970;54.976;73.248;2022-10-16T04:45:07;100931.00;;;9.85;73.91
63819;BME280;49970;54.976;73.248;2022-10-16T04:47:34;100929.22;;;9.85;74.65
63819;BME280;49970;54.976;73.248;2022-10-16T04:50:00;100926.97;;;9.93;73.61
63819;BME280;49970;54.976;73.248;2022-10-16T04:52:28;100936.16;;;10.02;73.82
63819;BME280;49970;54.976;73.248;2022-10-16T04:54:54;100933.06;;;10.10;73.49
63819;BME280;49970;54.976;73.248;2022-10-16T04:57:26;100934.03;;;10.23;73.56
63819;BME280;49970;54.976;73.248;2022-10-16T04:59:53;100938.72;;;10.34;72.81
63819;BME280;49970;54.976;73.248;2022-10-16T05:02:19;100920.66;;;10.40;72.59
63819;BME280;49970;54.976;73.248;2022-10-16T05:04:54;100922.00;;;10.47;72.87
63819;BME280;49970;54.976;73.248;2022-10-16T05:07:20;100925.72;;;10.59;72.29
63819;BME280;49970;54.976;73.248;2022-10-16T05:09:50;100921.63;;;10.68;71.77
63819;BME280;49970;54.976;73.248;2022-10-16T05:12:16;100923.81;;;10.76;71.06
63819;BME280;49970;54.976;73.248;2022-10-16T05:14:48;100915.56;;;10.80;71.31
63819;BME280;49970;54.976;73.248;2022-10-16T05:17:25;100921.25;;;10.88;70.78
63819;BME280;49970;54.976;73.248;2022-10-16T05:19:51;100919.16;;;10.93;70.45
63819;BME280;49970;54.976;73.248;2022-10-16T05:22:18;100914.16;;;10.89;70.90
63819;BME280;49970;54.976;73.248;2022-10-16T05:24:44;100930.31;;;10.98;70.35
63819;BME280;49970;54.976;73.248;2022-10-16T05:27:11;100927.78;;;10.97;70.08
63819;BME280;49970;54.976;73.248;2022-10-16T05:29:48;100938.09;;;11.02;70.30
63819;BME280;49970;54.976;73.248;2022-10-16T05:32:15;100932.03;;;11.00;69.62
63819;BME280;49970;54.976;73.248;2022-10-16T05:34:42;100918.41;;;10.91;69.77
63819;BME280;49970;54.976;73.248;2022-10-16T05:37:09;100929.47;;;10.98;69.35
63819;BME280;49970;54.976;73.248;2022-10-16T05:39:37;100933.06;;;10.97;69.25
63819;BME280;49970;54.976;73.248;2022-10-16T05:42:04;100933.19;;;10.95;69.68
63819;BME280;49970;54.976;73.248;2022-10-16T05:44:31;100933.91;;;10.97;69.62
63819;BME280;49970;54.976;73.248;2022-10-16T05:46:57;100933.06;;;10.97;69.62
63819;BME280;49970;54.976;73.248;2022-10-16T05:49:24;100927.00;;;10.95;69.28
63819;BME280;49970;54.976;73.248;2022-10-16T05:51:50;100932.97;;;10.98;69.44
63819;BME280;49970;54.976;73.248;2022-10-16T05:54:17;100928.44;;;11.01;69.56
63819;BME280;49970;54.976;73.248;2022-10-16T05:56:43;100925.00;;;10.98;69.08
63819;BME280;49970;54.976;73.248;2022-10-16T05:59:09;100930.97;;;11.02;69.28
63819;BME280;49970;54.976;73.248;2022-10-16T06:01:35;100920.38;;;11.02;69.12
63819;BME280;49970;54.976;73.248;2022-10-16T06:04:02;100927.59;;;11.00;68.92
63819;BME280;49970;54.976;73.248;2022-10-16T06:06:29;100929.94;;;11.05;68.92
63819;BME280;49970;54.976;73.248;2022-10-16T06:08:56;100928.88;;;11.07;69.66
63819;BME280;49970;54.976;73.248;2022-10-16T06:11:25;100920.19;;;11.05;69.42
63819;BME280;49970;54.976;73.248;2022-10-16T06:13:53;100925.31;;;11.08;69.51
63819;BME280;49970;54.976;73.248;2022-10-16T06:16:25;100931.25;;;11.12;69.71
63819;BME280;49970;54.976;73.248;2022-10-16T06:18:53;100919.72;;;11.13;69.40
63819;BME280;49970;54.976;73.248;2022-10-16T06:21:22;100917.91;;;11.13;69.28
63819;BME280;49970;54.976;73.248;2022-10-16T06:24:00;100907.09;;;11.16;69.40
63819;BME280;49970;54.976;73.248;2022-10-16T06:26:29;100915.50;;;11.23;69.71
63819;BME280;49970;54.976;73.248;2022-10-16T06:28:57;100916.06;;;11.28;69.92
63819;BME280;49970;54.976;73.248;2022-10-16T06:31:24;100912.47;;;11.29;70.28
63819;BME280;49970;54.976;73.248;2022-10-16T06:33:57;100905.44;;;11.28;70.45
63819;BME280;49970;54.976;73.248;2022-10-16T06:36:24;100908.38;;;11.38;70.05
63819;BME280;49970;54.976;73.248;2022-10-16T06:38:51;100900.31;;;11.39;70.65
63819;BME280;49970;54.976;73.248;2022-10-16T06:41:20;100906.25;;;11.43;70.41
63819;BME280;49970;54.976;73.248;2022-10-16T06:43:47;100896.69;;;11.40;71.03
63819;BME280;49970;54.976;73.248;2022-10-16T06:46:18;100891.19;;;11.43;70.66
63819;BME280;49970;54.976;73.248;2022-10-16T06:48:45;100875.03;;;11.34;70.17
63819;BME280;49970;54.976;73.248;2022-10-16T06:51:22;100886.56;;;11.33;70.68
63819;BME280;49970;54.976;73.248;2022-10-16T06:53:50;100885.72;;;11.32;71.39
63819;BME280;49970;54.976;73.248;2022-10-16T06:56:21;100894.34;;;11.36;71.43
63819;BME280;49970;54.976;73.248;2022-10-16T06:58:48;100893.50;;;11.35;70.31
63819;BME280;49970;54.976;73.248;2022-10-16T07:01:17;100893.59;;;11.34;70.72
63819;BME280;49970;54.976;73.248;2022-10-16T07:03:45;100889.16;;;11.34;71.12
63819;BME280;49970;54.976;73.248;2022-10-16T07:06:14;100892.75;;;11.33;71.67
63819;BME280;49970;54.976;73.248;2022-10-16T07:08:41;100890.00;;;11.35;72.61
63819;BME280;49970;54.976;73.248;2022-10-16T07:11:14;100881.00;;;11.37;72.74
63819;BME280;49970;54.976;73.248;2022-10-16T07:13:42;100886.00;;;11.42;73.68
63819;BME280;49970;54.976;73.248;2022-10-16T07:16:17;100882.09;;;11.47;74.77
63819;BME280;49970;54.976;73.248;2022-10-16T07:18:44;100880.47;;;11.45;74.35
63819;BME280;49970;54.976;73.248;2022-10-16T07:21:18;100877.44;;;11.51;73.70
63819;BME280;49970;54.976;73.248;2022-10-16T07:23:50;100874.59;;;11.54;73.91
63819;BME280;49970;54.976;73.248;2022-10-16T07:26:17;100869.91;;;11.58;73.25
63819;BME280;49970;54.976;73.248;2022-10-16T07:28:44;100861.75;;;11.61;73.37
63819;BME280;49970;54.976;73.248;2022-10-16T07:31:12;100851.97;;;11.61;73.01
63819;BME280;49970;54.976;73.248;2022-10-16T07:33:40;100860.59;;;11.65;72.59
63819;BME280;49970;54.976;73.248;2022-10-16T07:36:08;100843.94;;;11.63;72.34
63819;BME280;49970;54.976;73.248;2022-10-16T07:38:34;100848.94;;;11.67;71.98
63819;BME280;49970;54.976;73.248;2022-10-16T07:41:05;100843.44;;;11.70;72.00
63819;BME280;49970;54.976;73.248;2022-10-16T07:43:39;100838.75;;;11.74;71.96
63819;BME280;49970;54.976;73.248;2022-10-16T07:46:06;100837.69;;;11.77;72.18
63819;BME280;49970;54.976;73.248;2022-10-16T07:48:33;100828.03;;;11.76;72.21
63819;BME280;49970;54.976;73.248;2022-10-16T07:51:02;100835.69;;;11.80;72.40
63819;BME280;49970;54.976;73.248;2022-10-16T07:53:28;100828.69;;;11.79;72.53
63819;BME280;49970;54.976;73.248;2022-10-16T07:55:59;100835.53;;;11.83;71.77
63819;BME280;49970;54.976;73.248;2022-10-16T07:58:26;100841.69;;;11.84;71.89
63819;BME280;49970;54.976;73.248;2022-10-16T08:00:54;100838.91;;;11.85;71.85
63819;BME280;49970;54.976;73.248;2022-10-16T08:03:20;100837.94;;;11.86;71.61
63819;BME280;49970;54.976;73.248;2022-10-16T08:05:46;100837.94;;;11.86;71.44
63819;BME280;49970;54.976;73.248;2022-10-16T08:08:14;100827.72;;;11.80;71.86
63819;BME280;49970;54.976;73.248;2022-10-16T08:10:43;100844.97;;;11.87;71.74
63819;BME280;49970;54.976;73.248;2022-10-16T08:13:11;100833.41;;;11.88;72.01
63819;BME280;49970;54.976;73.248;2022-10-16T08:15:38;100834.56;;;11.97;72.69
63819;BME280;49970;54.976;73.248;2022-10-16T08:18:12;100839.75;;;11.99;72.40
63819;BME280;49970;54.976;73.248;2022-10-16T08:20:39;100829.13;;;11.99;72.48
63819;BME280;49970;54.976;73.248;2022-10-16T08:23:06;100829.47;;;12.07;73.00
63819;BME280;49970;54.976;73.248;2022-10-16T08:25:35;100832.56;;;12.13;72.63
63819;BME280;49970;54.976;73.248;2022-10-16T08:28:06;100830.53;;;12.17;72.68
63819;BME280;49970;54.976;73.248;2022-10-16T08:30:33;100832.34;;;12.16;72.66
63819;BME280;49970;54.976;73.248;2022-10-16T08:33:10;100826.72;;;12.21;73.05
63819;BME280;49970;54.976;73.248;2022-10-16T08:35:37;100826.91;;;12.31;72.57
63819;BME280;49970;54.976;73.248;2022-10-16T08:38:06;100822.25;;;12.34;73.00
63819;BME280;49970;54.976;73.248;2022-10-16T08:40:35;100820.09;;;12.39;72.86
63819;BME280;49970;54.976;73.248;2022-10-16T08:43:12;100820.44;;;12.35;72.33
63819;BME280;49970;54.976;73.248;2022-10-16T08:48:24;100815.88;;;12.24;72.85
63819;BME280;49970;54.976;73.248;2022-10-16T08:50:54;100818.63;;;12.23;73.01
63819;BME280;49970;54.976;73.248;2022-10-16T08:53:27;100807.25;;;12.20;73.33
63819;BME280;49970;54.976;73.248;2022-10-16T08:55:56;100812.47;;;12.22;73.14
63819;BME280;49970;54.976;73.248;2022-10-16T08:58:29;100822.13;;;12.23;73.29
63819;BME280;49970;54.976;73.248;2022-10-16T09:01:01;100812.47;;;12.22;73.03
63819;BME280;49970;54.976;73.248;2022-10-16T09:03:56;100808.22;;;12.19;73.04
63819;BME280;49970;54.976;73.248;2022-10-16T09:09:12;100810.16;;;12.17;73.34
63819;BME280;49970;54.976;73.248;2022-10-16T09:17:29;100812.28;;;12.12;72.67
63819;BME280;49970;54.976;73.248;2022-10-16T09:22:45;100814.81;;;12.01;72.56
63819;BME280;49970;54.976;73.248;2022-10-16T09:25:17;100815.03;;;11.98;72.44
63819;BME280;49970;54.976;73.248;2022-10-16T09:28:07;100814.38;;;11.94;72.60
63819;BME280;49970;54.976;73.248;2022-10-16T09:32:05;100800.13;;;11.83;72.88
63819;BME280;49970;54.976;73.248;2022-10-16T09:36:02;100803.56;;;11.85;73.48
63819;BME280;49970;54.976;73.248;2022-10-16T09:47:05;100799.50;;;11.79;74.55
63819;BME280;49970;54.976;73.248;2022-10-16T09:49:32;100803.66;;;11.83;74.46
63819;BME280;49970;54.976;73.248;2022-10-16T09:52:14;100796.72;;;11.81;75.34
63819;BME280;49970;54.976;73.248;2022-10-16T09:55:01;100791.53;;;11.79;75.57
63819;BME280;49970;54.976;73.248;2022-10-16T09:57:29;100788.88;;;11.79;75.62
63819;BME280;49970;54.976;73.248;2022-10-16T09:59:58;100791.41;;;11.81;76.29
63819;BME280;49970;54.976;73.248;2022-10-16T10:02:37;100791.13;;;11.85;76.88
63819;BME280;49970;54.976;73.248;2022-10-16T10:05:05;100796.97;;;11.90;77.36
63819;BME280;49970;54.976;73.248;2022-10-16T10:07:43;100804.84;;;11.92;77.73
63819;BME280;49970;54.976;73.248;2022-10-16T10:10:26;100799.63;;;11.90;77.39
63819;BME280;49970;54.976;73.248;2022-10-16T10:12:54;100800.78;;;11.86;77.37
63819;BME280;49970;54.976;73.248;2022-10-16T10:15:21;100801.28;;;11.79;77.63
63819;BME280;49970;54.976;73.248;2022-10-16T10:17:51;100797.25;;;11.73;77.45
63819;BME280;49970;54.976;73.248;2022-10-16T10:20:33;100791.53;;;11.66;77.68
63819;BME280;49970;54.976;73.248;2022-10-16T10:23:20;100788.41;;;11.60;78.19
63819;BME280;49970;54.976;73.248;2022-10-16T10:26:10;100787.03;;;11.54;78.38
63819;BME280;49970;54.976;73.248;2022-10-16T10:29:06;100768.53;;;11.40;78.44
63819;BME280;49970;54.976;73.248;2022-10-16T10:31:46;100785.28;;;11.40;78.79
63819;BME280;49970;54.976;73.248;2022-10-16T10:45:59;100781.53;;;11.17;81.25
63819;BME280;49970;54.976;73.248;2022-10-16T10:48:50;100771.13;;;11.14;81.19
63819;BME280;49970;54.976;73.248;2022-10-16T10:57:06;100773.88;;;11.13;80.17
63819;BME280;49970;54.976;73.248;2022-10-16T11:00:13;100769.50;;;11.12;79.72
63819;BME280;49970;54.976;73.248;2022-10-16T11:03:17;100766.25;;;11.08;79.53
63819;BME280;49970;54.976;73.248;2022-10-16T11:05:56;100757.72;;;11.03;79.45
63819;BME280;49970;54.976;73.248;2022-10-16T11:11:25;100760.47;;;11.02;79.12
63819;BME280;49970;54.976;73.248;2022-10-16T11:13:59;100757.38;;;10.95;79.08
63819;BME280;49970;54.976;73.248;2022-10-16T11:16:38;100763.53;;;10.95;79.64
63819;BME280;49970;54.976;73.248;2022-10-16T11:19:39;100763.63;;;10.94;79.98
63819;BME280;49970;54.976;73.248;2022-10-16T11:27:37;100763.63;;;10.94;79.90
63819;BME280;49970;54.976;73.248;2022-10-16T11:30:12;100754.19;;;10.90;80.19
63819;BME280;49970;54.976;73.248;2022-10-16T11:32:54;100753.31;;;10.89;79.97
63819;BME280;49970;54.976;73.248;2022-10-16T11:35:30;100755.78;;;10.92;80.33
63819;BME280;49970;54.976;73.248;2022-10-16T11:37:59;100760.47;;;11.02;80.18
63819;BME280;49970;54.976;73.248;2022-10-16T11:40:32;100745.53;;;11.01;79.89
63819;BME280;49970;54.976;73.248;2022-10-16T11:46:00;100750.53;;;11.05;79.60
63819;BME280;49970;54.976;73.248;2022-10-16T11:48:33;100748.41;;;11.10;79.32
63819;BME280;49970;54.976;73.248;2022-10-16T11:56:45;100732.50;;;11.10;79.36
63819;BME280;49970;54.976;73.248;2022-10-16T12:01:49;100726.47;;;11.08;79.47
63819;BME280;49970;54.976;73.248;2022-10-16T12:04:42;100725.91;;;11.03;79.26
63819;BME280;49970;54.976;73.248;2022-10-16T12:07:18;100715.72;;;10.97;79.29
63819;BME280;49970;54.976;73.248;2022-10-16T12:09:47;100723.78;;;10.95;79.33
63819;BME280;49970;54.976;73.248;2022-10-16T12:12:38;100723.88;;;10.94;79.01
63819;BME280;49970;54.976;73.248;2022-10-16T12:15:25;100719.84;;;10.88;78.56
63819;BME280;49970;54.976;73.248;2022-10-16T12:17:57;100720.69;;;10.89;78.61
63819;BME280;49970;54.976;73.248;2022-10-16T12:20:26;100712.72;;;10.89;78.77
63819;BME280;49970;54.976;73.248;2022-10-16T12:23:06;100712.63;;;10.90;78.20
63819;BME280;49970;54.976;73.248;2022-10-16T12:25:35;100714.41;;;10.90;78.05
63819;BME280;49970;54.976;73.248;2022-10-16T12:28:15;100722.28;;;10.91;78.52
63819;BME280;49970;54.976;73.248;2022-10-16T12:30:43;100719.41;;;10.94;78.38
63819;BME280;49970;54.976;73.248;2022-10-16T12:33:22;100719.41;;;10.94;78.33
63819;BME280;49970;54.976;73.248;2022-10-16T12:35:50;100711.03;;;10.88;78.53
63819;BME280;49970;54.976;73.248;2022-10-16T12:38:25;100704.31;;;10.82;78.63
63819;BME280;49970;54.976;73.248;2022-10-16T12:43:44;100722.03;;;10.82;79.63
63819;BME280;49970;54.976;73.248;2022-10-16T12:48:46;100712.34;;;10.68;80.05
63819;BME280;49970;54.976;73.248;2022-10-16T12:51:35;100710.41;;;10.70;80.69
63819;BME280;49970;54.976;73.248;2022-10-16T12:54:18;100717.63;;;10.68;80.71
63819;BME280;49970;54.976;73.248;2022-10-16T13:05:11;100723.41;;;10.75;80.35
63819;BME280;49970;54.976;73.248;2022-10-16T13:08:11;100719.88;;;10.74;80.34
63819;BME280;49970;54.976;73.248;2022-10-16T13:10:51;100709.50;;;10.71;80.36
63819;BME280;49970;54.976;73.248;2022-10-16T13:21:51;100713.47;;;10.64;80.91
63819;BME280;49970;54.976;73.248;2022-10-16T13:27:26;100699.34;;;10.51;81.79
63819;BME280;49970;54.976;73.248;2022-10-16T13:30:19;100705.59;;;10.50;81.97
63819;BME280;49970;54.976;73.248;2022-10-16T13:33:01;100704.94;;;10.46;82.24
63819;BME280;49970;54.976;73.248;2022-10-16T13:35:34;100700.78;;;10.42;81.88
63819;BME280;49970;54.976;73.248;2022-10-16T13:38:18;100701.81;;;10.39;81.75
63819;BME280;49970;54.976;73.248;2022-10-16T13:41:01;100713.84;;;10.45;81.41
63819;BME280;49970;54.976;73.248;2022-10-16T13:43:29;100714.69;;;10.45;81.28
63819;BME280;49970;54.976;73.248;2022-10-16T13:46:05;100701.44;;;10.45;81.06
63819;BME280;49970;54.976;73.248;2022-10-16T13:48:36;100712.88;;;10.46;81.40
63819;BME280;49970;54.976;73.248;2022-10-16T13:51:17;100707.66;;;10.44;81.49
63819;BME280;49970;54.976;73.248;2022-10-16T13:53:45;100708.53;;;10.45;81.57
63819;BME280;49970;54.976;73.248;2022-10-16T13:56:14;100707.97;;;10.40;81.78
63819;BME280;49970;54.976;73.248;2022-10-16T13:58:41;100712.53;;;10.38;81.49
63819;BME280;49970;54.976;73.248;2022-10-16T14:01:20;100705.63;;;10.35;81.77
63819;BME280;49970;54.976;73.248;2022-10-16T14:03:49;100698.16;;;10.28;81.68
63819;BME280;49970;54.976;73.248;2022-10-16T14:06:19;100694.75;;;10.26;82.00
63819;BME280;49970;54.976;73.248;2022-10-16T14:08:59;100688.97;;;10.19;81.71
63819;BME280;49970;54.976;73.248;2022-10-16T14:11:28;100700.91;;;10.26;81.94
63819;BME280;49970;54.976;73.248;2022-10-16T14:13:55;100711.59;;;10.25;81.88
63819;BME280;49970;54.976;73.248;2022-10-16T14:16:25;100703.94;;;10.20;82.12
63819;BME280;49970;54.976;73.248;2022-10-16T14:19:03;100699.66;;;10.03;82.70
63819;BME280;49970;54.976;73.248;2022-10-16T14:21:33;100690.50;;;9.94;82.95
63819;BME280;49970;54.976;73.248;2022-10-16T14:24:26;100690.13;;;9.86;83.29
63819;BME280;49970;54.976;73.248;2022-10-16T14:26:53;100678.72;;;9.71;82.96
63819;BME280;49970;54.976;73.248;2022-10-16T14:29:23;100699.41;;;9.79;83.21
63819;BME280;49970;54.976;73.248;2022-10-16T14:34:33;100701.19;;;9.64;83.70
63819;BME280;49970;54.976;73.248;2022-10-16T14:37:09;100701.47;;;9.60;83.70
63819;BME280;49970;54.976;73.248;2022-10-16T14:39:39;100705.16;;;9.57;83.71
63819;BME280;49970;54.976;73.248;2022-10-16T14:42:16;100700.81;;;9.56;84.14
63819;BME280;49970;54.976;73.248;2022-10-16T14:44:55;100691.19;;;9.55;84.22
63819;BME280;49970;54.976;73.248;2022-10-16T14:47:24;100696.06;;;9.61;84.30
63819;BME280;49970;54.976;73.248;2022-10-16T14:50:02;100695.81;;;9.66;84.02
63819;BME280;49970;54.976;73.248;2022-10-16T14:52:28;100693.19;;;9.66;83.36